CES242 ZSNJ-ZGSD
Flight info
| Callsign | CES242 |
|---|---|
| Flight time | N/A |
| Altitude | 37000 |
| Route | HFE71X HFE DCT NCH W19 PLT A599 WYN R473 CON W6 SAREX SAR01A |
| Aircraft | A321/M-SDE3FGHIRWY/LB1 |
Departure
| Time | 2026-04-22 15:18 |
|---|---|
| Airport | Nanjing Lukou International Airport (ZSNJ) |
Arrival
| Time | N/A |
|---|---|
| Airport | Zhuhai Jinwan Airport (ZGSD) |
| Time | Latitude | Longitude | Altitude | Speed | Heading |
|---|---|---|---|---|---|
| 2026-04-22 14:14 | 31.73501 | 118.86438 | 51 ft | 0 kts | 65° |
| 2026-04-22 15:03 | 31.73494 | 118.86421 | 57 ft | 4 kts | 61° |
| 2026-04-22 15:03 | 31.73480 | 118.86394 | 57 ft | 4 kts | 51° |
| 2026-04-22 15:04 | 31.73461 | 118.86372 | 58 ft | 4 kts | 31° |
| 2026-04-22 15:04 | 31.73439 | 118.86364 | 58 ft | 3 kts | 333° |
| 2026-04-22 15:04 | 31.73432 | 118.86369 | 54 ft | 0 kts | 328° |
| 2026-04-22 15:08 | 31.73438 | 118.86365 | 54 ft | 2 kts | 328° |
| 2026-04-22 15:08 | 31.73458 | 118.86350 | 53 ft | 6 kts | 328° |
| 2026-04-22 15:08 | 31.73505 | 118.86308 | 57 ft | 9 kts | 309° |
| 2026-04-22 15:09 | 31.73513 | 118.86229 | 51 ft | 11 kts | 251° |
| 2026-04-22 15:09 | 31.73470 | 118.86155 | 52 ft | 9 kts | 241° |
| 2026-04-22 15:09 | 31.73448 | 118.86098 | 54 ft | 8 kts | 250° |
| 2026-04-22 15:09 | 31.73428 | 118.86030 | 50 ft | 10 kts | 249° |
| 2026-04-22 15:10 | 31.73361 | 118.85969 | 52 ft | 17 kts | 186° |
| 2026-04-22 15:10 | 31.73242 | 118.86030 | 54 ft | 20 kts | 146° |
| 2026-04-22 15:10 | 31.73121 | 118.86121 | 51 ft | 22 kts | 149° |
| 2026-04-22 15:10 | 31.72988 | 118.86215 | 57 ft | 23 kts | 148° |
| 2026-04-22 15:11 | 31.72850 | 118.86321 | 55 ft | 24 kts | 148° |
| 2026-04-22 15:11 | 31.72711 | 118.86421 | 53 ft | 19 kts | 148° |
| 2026-04-22 15:11 | 31.72603 | 118.86498 | 55 ft | 11 kts | 149° |
| 2026-04-22 15:11 | 31.72573 | 118.86575 | 58 ft | 12 kts | 68° |
| 2026-04-22 15:12 | 31.72612 | 118.86626 | 56 ft | 13 kts | 32° |
| 2026-04-22 15:12 | 31.72696 | 118.86603 | 53 ft | 13 kts | 302° |
| 2026-04-22 15:12 | 31.72744 | 118.86510 | 56 ft | 15 kts | 322° |
| 2026-04-22 15:12 | 31.72838 | 118.86440 | 58 ft | 17 kts | 328° |
| 2026-04-22 15:13 | 31.72939 | 118.86367 | 56 ft | 18 kts | 328° |
| 2026-04-22 15:13 | 31.73053 | 118.86284 | 57 ft | 20 kts | 328° |
| 2026-04-22 15:13 | 31.73174 | 118.86196 | 55 ft | 21 kts | 328° |
| 2026-04-22 15:13 | 31.73301 | 118.86101 | 56 ft | 22 kts | 327° |
| 2026-04-22 15:14 | 31.73432 | 118.86004 | 53 ft | 22 kts | 328° |
| 2026-04-22 15:14 | 31.73564 | 118.85907 | 55 ft | 22 kts | 328° |
| 2026-04-22 15:14 | 31.73685 | 118.85819 | 57 ft | 18 kts | 328° |
| 2026-04-22 15:14 | 31.73741 | 118.85714 | 58 ft | 16 kts | 259° |
| 2026-04-22 15:15 | 31.73692 | 118.85608 | 59 ft | 14 kts | 237° |
| 2026-04-22 15:15 | 31.73632 | 118.85497 | 58 ft | 20 kts | 238° |
| 2026-04-22 15:15 | 31.73543 | 118.85323 | 51 ft | 29 kts | 237° |
| 2026-04-22 15:15 | 31.73432 | 118.85119 | 52 ft | 28 kts | 238° |
| 2026-04-22 15:16 | 31.73335 | 118.84936 | 58 ft | 25 kts | 237° |
| 2026-04-22 15:16 | 31.73313 | 118.84808 | 56 ft | 16 kts | 303° |
| 2026-04-22 15:16 | 31.73398 | 118.84742 | 58 ft | 14 kts | 347° |
| 2026-04-22 15:16 | 31.73464 | 118.84789 | 56 ft | 11 kts | 58° |
| 2026-04-22 15:17 | 31.73505 | 118.84866 | 57 ft | 19 kts | 58° |
| 2026-04-22 15:17 | 31.73729 | 118.85283 | 53 ft | 101 kts | 57° |
| 2026-04-22 15:17 | 31.74255 | 118.86254 | 50 ft | 177 kts | 58° |
| 2026-04-22 15:17 | 31.74953 | 118.87542 | 566 ft | 187 kts | 58° |
| 2026-04-22 15:18 | 31.75645 | 118.88842 | 1416 ft | 189 kts | 57° |
| 2026-04-22 15:18 | 31.76384 | 118.90145 | 2112 ft | 200 kts | 49° |
| 2026-04-22 15:18 | 31.77641 | 118.90952 | 2503 ft | 225 kts | 7° |
| 2026-04-22 15:18 | 31.79235 | 118.90543 | 2900 ft | 252 kts | 329° |
| 2026-04-22 15:19 | 31.80371 | 118.88930 | 3633 ft | 267 kts | 292° |
| 2026-04-22 15:19 | 31.80679 | 118.86763 | 4506 ft | 272 kts | 272° |
| 2026-04-22 15:19 | 31.80580 | 118.84523 | 5358 ft | 277 kts | 265° |
| 2026-04-22 15:19 | 31.80365 | 118.82264 | 6239 ft | 277 kts | 264° |
| 2026-04-22 15:20 | 31.80158 | 118.79957 | 7055 ft | 282 kts | 265° |
| 2026-04-22 15:20 | 31.80004 | 118.77672 | 7861 ft | 286 kts | 267° |
| 2026-04-22 15:20 | 31.79900 | 118.75297 | 8680 ft | 290 kts | 269° |
| 2026-04-22 15:20 | 31.79841 | 118.72914 | 9478 ft | 293 kts | 269° |
| 2026-04-22 15:21 | 31.79805 | 118.70503 | 10257 ft | 298 kts | 270° |
| 2026-04-22 15:21 | 31.79780 | 118.67980 | 10556 ft | 320 kts | 270° |
| 2026-04-22 15:21 | 31.79758 | 118.65269 | 10832 ft | 340 kts | 270° |
| 2026-04-22 15:21 | 31.79734 | 118.62455 | 11465 ft | 347 kts | 270° |
| 2026-04-22 15:22 | 31.79707 | 118.59601 | 12208 ft | 350 kts | 270° |
| 2026-04-22 15:22 | 31.79679 | 118.56725 | 12977 ft | 352 kts | 270° |
| 2026-04-22 15:22 | 31.79649 | 118.53842 | 13719 ft | 354 kts | 270° |
| 2026-04-22 15:22 | 31.79619 | 118.50936 | 14458 ft | 357 kts | 269° |
| 2026-04-22 15:23 | 31.79588 | 118.48015 | 15180 ft | 359 kts | 269° |
| 2026-04-22 15:23 | 31.79554 | 118.45071 | 15891 ft | 362 kts | 269° |
| 2026-04-22 15:23 | 31.79520 | 118.42110 | 16576 ft | 364 kts | 269° |
| 2026-04-22 15:23 | 31.79484 | 118.39114 | 17252 ft | 367 kts | 269° |
| 2026-04-22 15:24 | 31.79450 | 118.36110 | 17896 ft | 369 kts | 269° |
| 2026-04-22 15:24 | 31.79414 | 118.33085 | 18526 ft | 371 kts | 268° |
| 2026-04-22 15:24 | 31.79377 | 118.30041 | 19143 ft | 374 kts | 268° |
| 2026-04-22 15:24 | 31.79337 | 118.26983 | 19781 ft | 375 kts | 268° |
| 2026-04-22 15:25 | 31.79294 | 118.23910 | 20414 ft | 377 kts | 268° |
| 2026-04-22 15:25 | 31.79251 | 118.20819 | 21044 ft | 378 kts | 268° |
| 2026-04-22 15:25 | 31.79208 | 118.17720 | 21647 ft | 380 kts | 269° |
| 2026-04-22 15:25 | 31.79166 | 118.14611 | 22207 ft | 381 kts | 269° |
| 2026-04-22 15:26 | 31.79122 | 118.11496 | 22751 ft | 382 kts | 269° |
| 2026-04-22 15:26 | 31.79077 | 118.08369 | 23272 ft | 384 kts | 269° |
| 2026-04-22 15:26 | 31.79029 | 118.05228 | 23766 ft | 385 kts | 269° |
| 2026-04-22 15:26 | 31.78978 | 118.02076 | 24255 ft | 386 kts | 269° |
| 2026-04-22 15:27 | 31.78927 | 117.98923 | 24718 ft | 387 kts | 269° |
| 2026-04-22 15:27 | 31.78874 | 117.95710 | 25172 ft | 388 kts | 268° |
| 2026-04-22 15:27 | 31.78819 | 117.92525 | 25600 ft | 391 kts | 268° |
| 2026-04-22 15:27 | 31.78761 | 117.89330 | 26030 ft | 392 kts | 268° |
| 2026-04-22 15:28 | 31.78704 | 117.86117 | 26444 ft | 394 kts | 268° |
| 2026-04-22 15:28 | 31.78647 | 117.82889 | 26852 ft | 396 kts | 268° |
| 2026-04-22 15:28 | 31.78588 | 117.79655 | 27252 ft | 397 kts | 268° |
| 2026-04-22 15:28 | 31.78529 | 117.76396 | 27654 ft | 399 kts | 268° |
| 2026-04-22 15:29 | 31.78468 | 117.73127 | 28044 ft | 401 kts | 268° |
| 2026-04-22 15:29 | 31.78404 | 117.69848 | 28419 ft | 402 kts | 268° |
| 2026-04-22 15:29 | 31.78339 | 117.66556 | 28776 ft | 404 kts | 267° |
| 2026-04-22 15:30 | 31.78199 | 117.59930 | 29485 ft | 407 kts | 267° |
| 2026-04-22 15:30 | 31.78125 | 117.56591 | 29837 ft | 409 kts | 267° |
| 2026-04-22 15:30 | 31.78049 | 117.53245 | 30187 ft | 410 kts | 267° |
| 2026-04-22 15:30 | 31.77971 | 117.49888 | 30529 ft | 412 kts | 267° |
| 2026-04-22 15:31 | 31.77894 | 117.46515 | 30857 ft | 413 kts | 267° |
| 2026-04-22 15:31 | 31.77815 | 117.43144 | 31289 ft | 412 kts | 267° |
| 2026-04-22 15:31 | 31.77734 | 117.39789 | 31718 ft | 411 kts | 267° |
| 2026-04-22 15:31 | 31.77651 | 117.36425 | 32124 ft | 410 kts | 267° |
| 2026-04-22 15:32 | 31.77397 | 117.33100 | 32517 ft | 409 kts | 259° |
| 2026-04-22 15:32 | 31.76621 | 117.29883 | 32913 ft | 409 kts | 250° |
| 2026-04-22 15:32 | 31.75343 | 117.26895 | 33288 ft | 411 kts | 240° |
| 2026-04-22 15:32 | 31.73667 | 117.24165 | 33640 ft | 413 kts | 236° |
| 2026-04-22 15:33 | 31.71934 | 117.21465 | 34006 ft | 412 kts | 236° |
| 2026-04-22 15:33 | 31.70216 | 117.18782 | 34375 ft | 412 kts | 236° |
| 2026-04-22 15:33 | 31.68497 | 117.16095 | 34751 ft | 410 kts | 236° |
| 2026-04-22 15:33 | 31.66784 | 117.13415 | 34980 ft | 410 kts | 237° |
| 2026-04-22 15:34 | 31.65073 | 117.10739 | 35023 ft | 409 kts | 237° |
| 2026-04-22 15:34 | 31.61657 | 117.05424 | 35026 ft | 407 kts | 236° |
| 2026-04-22 15:35 | 31.58779 | 117.01003 | 35026 ft | 407 kts | 236° |
| 2026-04-22 15:35 | 31.54715 | 116.94886 | 35026 ft | 406 kts | 236° |
| 2026-04-22 15:36 | 31.51242 | 116.89661 | 35027 ft | 407 kts | 236° |
| 2026-04-22 15:36 | 31.47772 | 116.84421 | 35025 ft | 407 kts | 236° |
| 2026-04-22 15:37 | 31.44323 | 116.79164 | 35026 ft | 406 kts | 236° |
| 2026-04-22 15:37 | 31.40900 | 116.73908 | 35027 ft | 406 kts | 236° |
| 2026-04-22 15:38 | 31.37472 | 116.68647 | 35026 ft | 406 kts | 236° |
| 2026-04-22 15:38 | 31.32315 | 116.60767 | 35025 ft | 407 kts | 236° |
| 2026-04-22 15:39 | 31.28871 | 116.55519 | 35026 ft | 406 kts | 236° |
| 2026-04-22 15:39 | 31.25429 | 116.50292 | 35026 ft | 406 kts | 236° |
| 2026-04-22 15:40 | 31.21984 | 116.45061 | 35027 ft | 406 kts | 236° |
| 2026-04-22 15:40 | 31.18541 | 116.39830 | 35027 ft | 407 kts | 236° |
| 2026-04-22 15:41 | 31.15090 | 116.34600 | 35027 ft | 406 kts | 236° |
| 2026-04-22 15:41 | 31.11616 | 116.29343 | 35027 ft | 406 kts | 235° |
| 2026-04-22 15:42 | 31.08163 | 116.24126 | 35025 ft | 406 kts | 235° |
| 2026-04-22 15:42 | 31.04732 | 116.18938 | 35027 ft | 406 kts | 236° |
| 2026-04-22 15:43 | 31.01255 | 116.13685 | 35027 ft | 406 kts | 235° |
| 2026-04-22 15:43 | 30.97799 | 116.08478 | 35025 ft | 406 kts | 235° |
| 2026-04-22 15:44 | 30.94926 | 116.04151 | 35027 ft | 406 kts | 235° |
| 2026-04-22 15:44 | 30.91458 | 115.98948 | 35027 ft | 406 kts | 235° |
| 2026-04-22 15:45 | 30.87997 | 115.93758 | 35027 ft | 406 kts | 235° |
| 2026-04-22 15:45 | 30.84542 | 115.88572 | 35026 ft | 405 kts | 235° |
| 2026-04-22 15:46 | 30.81099 | 115.83375 | 35026 ft | 406 kts | 236° |
| 2026-04-22 15:46 | 30.77668 | 115.78161 | 35026 ft | 405 kts | 236° |
| 2026-04-22 15:47 | 30.74248 | 115.72951 | 35026 ft | 405 kts | 236° |
| 2026-04-22 15:47 | 30.70812 | 115.67752 | 35025 ft | 406 kts | 236° |
| 2026-04-22 15:48 | 30.67345 | 115.62522 | 35026 ft | 406 kts | 236° |
| 2026-04-22 15:48 | 30.63902 | 115.57324 | 35027 ft | 406 kts | 236° |
| 2026-04-22 15:49 | 30.60459 | 115.52126 | 35027 ft | 406 kts | 236° |
| 2026-04-22 15:49 | 30.57011 | 115.46937 | 35027 ft | 406 kts | 236° |
| 2026-04-22 15:50 | 30.53559 | 115.41751 | 35027 ft | 406 kts | 236° |
| 2026-04-22 15:50 | 30.50105 | 115.36564 | 35027 ft | 407 kts | 236° |
| 2026-04-22 15:51 | 30.46662 | 115.31369 | 35027 ft | 406 kts | 239° |
| 2026-04-22 15:51 | 30.44418 | 115.25478 | 35026 ft | 400 kts | 258° |
| 2026-04-22 15:52 | 30.44293 | 115.19054 | 35028 ft | 402 kts | 275° |
| 2026-04-22 15:52 | 30.44974 | 115.12614 | 35028 ft | 403 kts | 275° |
| 2026-04-22 15:53 | 30.45639 | 115.06171 | 35026 ft | 403 kts | 275° |
| 2026-04-22 15:53 | 30.46296 | 114.99734 | 35025 ft | 402 kts | 275° |
| 2026-04-22 15:54 | 30.46951 | 114.93303 | 35026 ft | 401 kts | 275° |
| 2026-04-22 15:54 | 30.47604 | 114.86879 | 35026 ft | 401 kts | 275° |
| 2026-04-22 15:55 | 30.48260 | 114.80418 | 35026 ft | 401 kts | 275° |
| 2026-04-22 15:55 | 30.48912 | 114.73994 | 35025 ft | 401 kts | 275° |
| 2026-04-22 15:56 | 30.49562 | 114.67571 | 35025 ft | 401 kts | 275° |
| 2026-04-22 15:56 | 30.50206 | 114.61151 | 35026 ft | 401 kts | 275° |
| 2026-04-22 15:57 | 30.50838 | 114.54720 | 35027 ft | 401 kts | 274° |
| 2026-04-22 15:57 | 30.51468 | 114.48294 | 35026 ft | 401 kts | 274° |
| 2026-04-22 15:58 | 30.52098 | 114.41867 | 35026 ft | 401 kts | 275° |
| 2026-04-22 15:58 | 30.52728 | 114.35441 | 35027 ft | 401 kts | 275° |
| 2026-04-22 15:59 | 30.53357 | 114.29007 | 35026 ft | 401 kts | 275° |
| 2026-04-22 15:59 | 30.53622 | 114.22579 | 35028 ft | 399 kts | 263° |
| 2026-04-22 16:00 | 30.52003 | 114.16444 | 35027 ft | 403 kts | 243° |
| 2026-04-22 16:00 | 30.50397 | 114.13770 | 35027 ft | 408 kts | 232° |
| 2026-04-22 16:00 | 30.48296 | 114.11530 | 35028 ft | 416 kts | 221° |
| 2026-04-22 16:01 | 30.43042 | 114.08376 | 35027 ft | 426 kts | 211° |
| 2026-04-22 16:01 | 30.37657 | 114.05494 | 35026 ft | 426 kts | 211° |
| 2026-04-22 16:02 | 30.32291 | 114.02610 | 35026 ft | 425 kts | 211° |
| 2026-04-22 16:02 | 30.26919 | 113.99721 | 35026 ft | 426 kts | 211° |
| 2026-04-22 16:03 | 30.21543 | 113.96827 | 35026 ft | 426 kts | 211° |
| 2026-04-22 16:03 | 30.16165 | 113.93945 | 35026 ft | 426 kts | 211° |
| 2026-04-22 16:04 | 30.10778 | 113.91068 | 35026 ft | 426 kts | 211° |
| 2026-04-22 16:04 | 30.05392 | 113.88194 | 35034 ft | 427 kts | 211° |
| 2026-04-22 16:05 | 30.00009 | 113.85324 | 35036 ft | 426 kts | 211° |
| 2026-04-22 16:05 | 29.94626 | 113.82453 | 35035 ft | 426 kts | 211° |
| 2026-04-22 16:06 | 29.89219 | 113.79639 | 35034 ft | 429 kts | 207° |
| 2026-04-22 16:06 | 29.83243 | 113.78194 | 35037 ft | 446 kts | 191° |
| 2026-04-22 16:07 | 29.77052 | 113.77753 | 35035 ft | 446 kts | 191° |
| 2026-04-22 16:07 | 29.70854 | 113.77331 | 35034 ft | 446 kts | 191° |
| 2026-04-22 16:08 | 29.64664 | 113.76909 | 35035 ft | 446 kts | 191° |
| 2026-04-22 16:08 | 29.58473 | 113.76473 | 35036 ft | 445 kts | 191° |
| 2026-04-22 16:09 | 29.52283 | 113.76043 | 35035 ft | 445 kts | 191° |
| 2026-04-22 16:09 | 29.49208 | 113.75833 | 34773 ft | 442 kts | 191° |
| 2026-04-22 16:09 | 29.46142 | 113.75623 | 33992 ft | 443 kts | 191° |
| 2026-04-22 16:10 | 29.43028 | 113.75400 | 32691 ft | 451 kts | 191° |
| 2026-04-22 16:10 | 29.39883 | 113.75175 | 31033 ft | 453 kts | 192° |
| 2026-04-22 16:10 | 29.37803 | 113.75030 | 30049 ft | 452 kts | 192° |
| 2026-04-22 16:10 | 29.33646 | 113.74748 | 28438 ft | 439 kts | 192° |
| 2026-04-22 16:11 | 29.30694 | 113.74564 | 28149 ft | 409 kts | 192° |
| 2026-04-22 16:11 | 29.27931 | 113.74398 | 27683 ft | 388 kts | 192° |
| 2026-04-22 16:11 | 29.25281 | 113.74229 | 27209 ft | 380 kts | 193° |
| 2026-04-22 16:11 | 29.22634 | 113.74064 | 26733 ft | 382 kts | 191° |
| 2026-04-22 16:12 | 29.19978 | 113.74024 | 26265 ft | 382 kts | 188° |
| 2026-04-22 16:12 | 29.17322 | 113.74086 | 25804 ft | 381 kts | 187° |
| 2026-04-22 16:12 | 29.14671 | 113.74201 | 25352 ft | 382 kts | 186° |
| 2026-04-22 16:12 | 29.12028 | 113.74330 | 24900 ft | 379 kts | 186° |
| 2026-04-22 16:13 | 29.09398 | 113.74450 | 24463 ft | 376 kts | 186° |
| 2026-04-22 16:13 | 29.06794 | 113.74553 | 24060 ft | 372 kts | 186° |
| 2026-04-22 16:13 | 29.04222 | 113.74640 | 23656 ft | 368 kts | 186° |
| 2026-04-22 16:13 | 29.01680 | 113.74715 | 23251 ft | 364 kts | 186° |
| 2026-04-22 16:14 | 28.99148 | 113.74783 | 22855 ft | 362 kts | 186° |
| 2026-04-22 16:14 | 28.96634 | 113.74851 | 22456 ft | 361 kts | 186° |
| 2026-04-22 16:14 | 28.94210 | 113.74915 | 22064 ft | 359 kts | 186° |
| 2026-04-22 16:14 | 28.91743 | 113.74980 | 21667 ft | 358 kts | 186° |
| 2026-04-22 16:15 | 28.89263 | 113.75050 | 21255 ft | 356 kts | 186° |
| 2026-04-22 16:15 | 28.86815 | 113.75122 | 20843 ft | 355 kts | 186° |
| 2026-04-22 16:15 | 28.84351 | 113.75196 | 20421 ft | 354 kts | 186° |
| 2026-04-22 16:15 | 28.81890 | 113.75268 | 19993 ft | 352 kts | 186° |
| 2026-04-22 16:16 | 28.79411 | 113.75341 | 19563 ft | 351 kts | 186° |
| 2026-04-22 16:16 | 28.76982 | 113.75370 | 19122 ft | 345 kts | 190° |
| 2026-04-22 16:16 | 28.74668 | 113.75014 | 18692 ft | 335 kts | 200° |
| 2026-04-22 16:16 | 28.73169 | 113.74527 | 18420 ft | 329 kts | 206° |
| 2026-04-22 16:17 | 28.70469 | 113.73072 | 17888 ft | 320 kts | 218° |
| 2026-04-22 16:17 | 28.69211 | 113.72149 | 17618 ft | 319 kts | 219° |
| 2026-04-22 16:17 | 28.67349 | 113.70784 | 17207 ft | 317 kts | 218° |
| 2026-04-22 16:17 | 28.65491 | 113.69434 | 16813 ft | 316 kts | 218° |
| 2026-04-22 16:18 | 28.63649 | 113.68094 | 16411 ft | 314 kts | 218° |
| 2026-04-22 16:18 | 28.61816 | 113.66757 | 16012 ft | 312 kts | 218° |
| 2026-04-22 16:18 | 28.59996 | 113.65431 | 15618 ft | 309 kts | 218° |
| 2026-04-22 16:18 | 28.58190 | 113.64113 | 15217 ft | 308 kts | 218° |
| 2026-04-22 16:19 | 28.56392 | 113.62804 | 14822 ft | 306 kts | 218° |
| 2026-04-22 16:19 | 28.54600 | 113.61501 | 14425 ft | 304 kts | 218° |
| 2026-04-22 16:19 | 28.52822 | 113.60207 | 14033 ft | 302 kts | 218° |
| 2026-04-22 16:19 | 28.51060 | 113.58923 | 13645 ft | 300 kts | 218° |
| 2026-04-22 16:20 | 28.49302 | 113.57641 | 13255 ft | 299 kts | 218° |
| 2026-04-22 16:20 | 28.47555 | 113.56371 | 12865 ft | 297 kts | 218° |
| 2026-04-22 16:20 | 28.45819 | 113.55109 | 12482 ft | 296 kts | 218° |
| 2026-04-22 16:20 | 28.44090 | 113.53855 | 12094 ft | 294 kts | 218° |
| 2026-04-22 16:21 | 28.42372 | 113.52607 | 11712 ft | 293 kts | 218° |
| 2026-04-22 16:21 | 28.40657 | 113.51358 | 11324 ft | 293 kts | 217° |
| 2026-04-22 16:21 | 28.38933 | 113.50104 | 10932 ft | 295 kts | 217° |
| 2026-04-22 16:21 | 28.37176 | 113.48826 | 10556 ft | 297 kts | 217° |
| 2026-04-22 16:22 | 28.33740 | 113.46337 | 10029 ft | 291 kts | 216° |
| 2026-04-22 16:22 | 28.32031 | 113.45097 | 9858 ft | 292 kts | 216° |
| 2026-04-22 16:22 | 28.30313 | 113.43854 | 9741 ft | 294 kts | 215° |
| 2026-04-22 16:23 | 28.26821 | 113.41318 | 8933 ft | 299 kts | 215° |
| 2026-04-22 16:23 | 28.25042 | 113.40025 | 8377 ft | 304 kts | 214° |
| 2026-04-22 16:23 | 28.23269 | 113.38741 | 8041 ft | 301 kts | 214° |
| 2026-04-22 16:24 | 28.21512 | 113.37469 | 7664 ft | 298 kts | 214° |
| 2026-04-22 16:24 | 28.18015 | 113.35104 | 6204 ft | 289 kts | 200° |
| 2026-04-22 16:24 | 28.16095 | 113.34472 | 5462 ft | 286 kts | 195° |
| 2026-04-22 16:25 | 28.14177 | 113.33930 | 4767 ft | 282 kts | 194° |
| 2026-04-22 16:25 | 28.10477 | 113.32905 | 4291 ft | 256 kts | 194° |
| 2026-04-22 16:25 | 28.08838 | 113.32458 | 4300 ft | 234 kts | 194° |
| 2026-04-22 16:26 | 28.07265 | 113.32033 | 4293 ft | 231 kts | 194° |
| 2026-04-22 16:26 | 28.05721 | 113.31616 | 3815 ft | 227 kts | 195° |
| 2026-04-22 16:26 | 28.04186 | 113.31201 | 3543 ft | 222 kts | 194° |
| 2026-04-22 16:26 | 28.02730 | 113.30810 | 3399 ft | 210 kts | 194° |
| 2026-04-22 16:27 | 28.01324 | 113.30428 | 3259 ft | 205 kts | 195° |
| 2026-04-22 16:27 | 27.99939 | 113.30046 | 3200 ft | 204 kts | 197° |
| 2026-04-22 16:27 | 27.98678 | 113.29354 | 3209 ft | 202 kts | 213° |
| 2026-04-22 16:27 | 27.97546 | 113.28420 | 3206 ft | 201 kts | 228° |
| 2026-04-22 16:28 | 27.96882 | 113.27061 | 3204 ft | 200 kts | 258° |
| 2026-04-22 16:28 | 27.96941 | 113.25520 | 3203 ft | 199 kts | 289° |
| 2026-04-22 16:28 | 27.97690 | 113.24227 | 3211 ft | 200 kts | 320° |
| 2026-04-22 16:28 | 27.98927 | 113.23550 | 3207 ft | 200 kts | 348° |
| 2026-04-22 16:29 | 28.00263 | 113.23273 | 3217 ft | 186 kts | 349° |
| 2026-04-22 16:29 | 28.01485 | 113.23101 | 3200 ft | 166 kts | 354° |
| 2026-04-22 16:29 | 28.02602 | 113.23002 | 3092 ft | 157 kts | 355° |
| 2026-04-22 16:29 | 28.03681 | 113.22923 | 2928 ft | 154 kts | 355° |
| 2026-04-22 16:30 | 28.04389 | 113.22876 | 2804 ft | 153 kts | 355° |
| 2026-04-22 16:30 | 28.05802 | 113.22786 | 2541 ft | 151 kts | 354° |
| 2026-04-22 16:30 | 28.06847 | 113.22722 | 2342 ft | 151 kts | 356° |
| 2026-04-22 16:30 | 28.07889 | 113.22657 | 2142 ft | 150 kts | 355° |
| 2026-04-22 16:31 | 28.08920 | 113.22593 | 1946 ft | 147 kts | 355° |
| 2026-04-22 16:31 | 28.09906 | 113.22532 | 1766 ft | 138 kts | 355° |
| 2026-04-22 16:31 | 28.10853 | 113.22474 | 1575 ft | 134 kts | 355° |
| 2026-04-22 16:31 | 28.11779 | 113.22419 | 1399 ft | 133 kts | 356° |
| 2026-04-22 16:32 | 28.12697 | 113.22375 | 1215 ft | 131 kts | 357° |
| 2026-04-22 16:32 | 28.13604 | 113.22314 | 1034 ft | 131 kts | 355° |
| 2026-04-22 16:32 | 28.14513 | 113.22248 | 866 ft | 131 kts | 356° |
| 2026-04-22 16:32 | 28.15439 | 113.22209 | 683 ft | 138 kts | 355° |
| 2026-04-22 16:33 | 28.16408 | 113.22137 | 511 ft | 142 kts | 355° |
| 2026-04-22 16:33 | 28.17396 | 113.22075 | 314 ft | 142 kts | 356° |
| 2026-04-22 16:33 | 28.18369 | 113.22008 | 224 ft | 129 kts | 356° |
| 2026-04-22 16:33 | 28.19121 | 113.21963 | 217 ft | 84 kts | 358° |
| 2026-04-22 16:34 | 28.19508 | 113.21941 | 223 ft | 31 kts | 353° |
| 2026-04-22 16:34 | 28.19637 | 113.21894 | 217 ft | 10 kts | 334° |
| 2026-04-22 16:34 | 28.19656 | 113.21883 | 216 ft | 4 kts | 333° |
| 2026-04-22 16:34 | 28.19678 | 113.21871 | 216 ft | 1 kts | 333° |
| 2026-04-22 16:35 | 28.19686 | 113.21866 | 224 ft | 4 kts | 333° |
| 2026-04-22 16:35 | 28.19714 | 113.21849 | 215 ft | 0 kts | 328° |
| 2026-04-22 16:35 | 28.19721 | 113.21844 | 215 ft | 1 kts | 327° |
| 2026-04-22 16:35 | 28.19738 | 113.21830 | 215 ft | 6 kts | 321° |
| 2026-04-22 16:36 | 28.19764 | 113.21774 | 220 ft | 10 kts | 280° |
| 2026-04-22 16:36 | 28.19760 | 113.21691 | 214 ft | 11 kts | 259° |
| 2026-04-22 16:36 | 28.19698 | 113.21642 | 221 ft | 11 kts | 185° |
| 2026-04-22 16:36 | 28.19655 | 113.21642 | 214 ft | 7 kts | 186° |
| 2026-04-22 16:37 | 28.19625 | 113.21622 | 214 ft | 2 kts | 229° |
| 2026-04-22 16:37 | 28.19619 | 113.21596 | 214 ft | 4 kts | 269° |
| 2026-04-22 16:37 | 28.19618 | 113.21574 | 214 ft | 3 kts | 263° |
| 2026-04-22 16:37 | 28.19616 | 113.21561 | 214 ft | 1 kts | 262° |
| 2026-04-22 16:38 | 28.19616 | 113.21554 | 217 ft | 1 kts | 261° |
| 2026-04-22 16:38 | 28.19614 | 113.21545 | 214 ft | 1 kts | 261° |
| 2026-04-22 16:38 | 28.19613 | 113.21540 | 214 ft | 0 kts | 260° |